Time;durP1;ratioP1;P1;durP2;ratioP2;P2;SDS_P1;SDS_P2;PMS_P1;PMS_P2;Temp;Humidity;BMP_temperature;BMP_pressure;BME280_temperature;BME280_humidity;BME280_pressure;Samples;Min_cycle;Max_cycle;Signal;HPM_P1;HPM_P2
2023/03/13 00:00:05;;;;;;;14.10;5.93;;;3.40;99.90;;;;;;4439885;28;657006;-65
2023/03/13 00:02:53;;;;;;;13.60;5.97;;;3.40;99.90;;;;;;4407782;28;657996;-65
2023/03/13 00:05:42;;;;;;;9.53;4.67;;;3.40;99.90;;;;;;4428569;28;657081;-65
2023/03/13 00:08:29;;;;;;;11.80;5.17;;;3.50;99.90;;;;;;4441056;28;656274;-65
2023/03/13 00:11:16;;;;;;;7.13;4.27;;;3.60;99.90;;;;;;4420240;28;656239;-65
2023/03/13 00:14:04;;;;;;;11.27;5.00;;;3.70;99.90;;;;;;4440932;28;655313;-65
2023/03/13 00:16:51;;;;;;;8.10;4.13;;;3.60;99.90;;;;;;4413072;28;657042;-65
2023/03/13 00:19:39;;;;;;;8.20;3.83;;;3.60;99.90;;;;;;4425783;28;656096;-65
2023/03/13 00:22:27;;;;;;;11.30;4.00;;;3.80;99.90;;;;;;4406470;28;655291;-65
2023/03/13 00:25:15;;;;;;;8.43;4.17;;;3.80;99.90;;;;;;4419516;28;657195;-66
2023/03/13 00:28:03;;;;;;;12.40;4.27;;;3.80;99.90;;;;;;4428779;28;656098;-65
2023/03/13 00:30:50;;;;;;;9.50;4.60;;;3.80;99.90;;;;;;4434220;28;656440;-66
2023/03/13 00:33:38;;;;;;;9.33;4.37;;;3.80;99.90;;;;;;4446199;28;655728;-66
2023/03/13 00:36:26;;;;;;;10.60;4.60;;;3.90;99.90;;;;;;4416146;28;655462;-66
2023/03/13 00:39:15;;;;;;;9.37;4.00;;;3.90;99.90;;;;;;4431548;28;657593;-65
2023/03/13 00:42:03;;;;;;;10.10;4.60;;;3.90;99.90;;;;;;4415193;28;657012;-65
2023/03/13 00:44:50;;;;;;;9.23;3.93;;;3.90;99.90;;;;;;4421649;28;657000;-65
2023/03/13 00:47:38;;;;;;;8.17;4.10;;;4.00;99.90;;;;;;4430450;28;657015;-65
2023/03/13 00:50:25;;;;;;;8.47;4.27;;;4.00;99.90;;;;;;4428953;28;655435;-65
2023/03/13 00:53:12;;;;;;;6.40;3.53;;;4.00;99.90;;;;;;4437588;28;656234;-65
2023/03/13 00:56:02;;;;;;;8.70;4.27;;;4.00;99.90;;;;;;4429228;28;655393;-66
2023/03/13 00:58:50;;;;;;;8.27;4.03;;;4.00;99.90;;;;;;4434089;28;655282;-65
2023/03/13 01:01:37;;;;;;;7.73;4.07;;;4.10;99.90;;;;;;4413967;28;656488;-65
2023/03/13 01:04:24;;;;;;;8.27;4.40;;;4.00;99.90;;;;;;4442501;28;655569;-65
2023/03/13 01:07:11;;;;;;;7.47;4.67;;;4.00;99.90;;;;;;4414875;28;656061;-66
2023/03/13 01:09:59;;;;;;;8.43;4.27;;;4.00;99.90;;;;;;4439331;28;655802;-66
2023/03/13 01:12:47;;;;;;;8.93;4.33;;;4.10;99.90;;;;;;4409816;28;655430;-65
2023/03/13 01:15:35;;;;;;;11.10;4.40;;;4.10;99.90;;;;;;4441953;28;655508;-66
2023/03/13 01:18:23;;;;;;;11.53;4.70;;;4.10;99.90;;;;;;4408818;28;656825;-65
2023/03/13 01:21:10;;;;;;;9.03;4.53;;;4.10;99.90;;;;;;4428875;28;656595;-66
2023/03/13 01:23:57;;;;;;;7.83;4.07;;;4.10;99.90;;;;;;4440179;28;656417;-66
2023/03/13 01:26:45;;;;;;;7.27;3.63;;;4.10;99.90;;;;;;4427613;28;655583;-65
2023/03/13 01:29:34;;;;;;;10.63;4.30;;;4.20;99.90;;;;;;4439601;28;655970;-65
2023/03/13 01:32:21;;;;;;;8.43;4.10;;;4.20;99.90;;;;;;4415862;28;656580;-66
2023/03/13 01:35:09;;;;;;;10.07;4.33;;;4.20;99.90;;;;;;4440668;28;656178;-65
2023/03/13 01:37:56;;;;;;;6.97;3.83;;;4.20;99.90;;;;;;4415908;28;656654;-65
2023/03/13 01:40:44;;;;;;;7.47;4.10;;;4.20;99.90;;;;;;4436744;28;656477;-65
2023/03/13 01:43:32;;;;;;;6.97;4.10;;;4.20;99.90;;;;;;4407955;28;655755;-65
2023/03/13 01:46:23;;;;;;;7.47;3.53;;;4.20;99.90;;;;;;4435950;28;655927;-65
2023/03/13 01:49:11;;;;;;;7.30;3.93;;;4.20;99.90;;;;;;4398294;28;655949;-65
2023/03/13 01:52:02;;;;;;;8.33;4.20;;;4.30;99.90;;;;;;4430235;28;655849;-66
2023/03/13 01:54:51;;;;;;;10.63;4.00;;;4.30;99.90;;;;;;4439519;28;655960;-65
2023/03/13 01:57:40;;;;;;;6.63;3.92;;;4.30;99.90;;;;;;4415365;28;659657;-65
2023/03/13 02:00:29;;;;;;;8.73;3.90;;;4.30;99.90;;;;;;4420437;28;656624;-65
2023/03/13 02:03:19;;;;;;;6.10;3.53;;;4.40;99.90;;;;;;4410621;28;655229;-65
2023/03/13 02:06:07;;;;;;;9.10;3.87;;;4.40;99.90;;;;;;4414132;28;656003;-66
2023/03/13 02:08:55;;;;;;;8.20;3.97;;;4.40;99.90;;;;;;4446384;28;655382;-65
2023/03/13 02:11:47;;;;;;;8.33;3.43;;;4.40;99.90;;;;;;4420787;28;657511;-65
2023/03/13 02:14:35;;;;;;;6.10;3.27;;;4.50;99.90;;;;;;4410352;28;655965;-65
2023/03/13 02:17:22;;;;;;;8.13;3.87;;;4.50;99.90;;;;;;4406253;28;655334;-65
2023/03/13 02:20:12;;;;;;;5.20;3.30;;;4.60;99.90;;;;;;4434403;28;655786;-66
2023/03/13 02:23:02;;;;;;;6.43;3.60;;;4.60;99.90;;;;;;4423874;28;655356;-66
2023/03/13 02:25:51;;;;;;;6.57;3.23;;;4.60;99.90;;;;;;4435192;28;656768;-65
2023/03/13 02:28:38;;;;;;;6.87;3.70;;;4.60;99.90;;;;;;4410380;28;656467;-65
2023/03/13 02:31:26;;;;;;;5.43;3.20;;;4.70;99.90;;;;;;4408731;28;655634;-65
2023/03/13 02:34:14;;;;;;;6.60;3.60;;;4.70;99.90;;;;;;4441082;28;656179;-66
2023/03/13 02:37:02;;;;;;;7.03;3.70;;;4.70;99.90;;;;;;4410560;28;655414;-65
2023/03/13 02:39:49;;;;;;;6.87;3.70;;;4.70;99.90;;;;;;4440721;28;656073;-65
2023/03/13 02:42:38;;;;;;;7.40;3.70;;;4.80;99.90;;;;;;4417653;28;656403;-65
2023/03/13 02:45:25;;;;;;;6.03;3.37;;;4.80;99.90;;;;;;4417787;28;655451;-66
2023/03/13 02:48:12;;;;;;;8.40;3.43;;;4.90;99.90;;;;;;4436119;28;656179;-65
2023/03/13 02:51:01;;;;;;;5.43;3.27;;;4.90;99.90;;;;;;4425959;28;655847;-66
2023/03/13 02:53:49;;;;;;;5.00;3.37;;;4.90;99.90;;;;;;4435774;28;657147;-66
2023/03/13 02:56:38;;;;;;;9.47;3.07;;;4.90;99.90;;;;;;4421083;28;655729;-65
2023/03/13 02:59:27;;;;;;;5.70;3.53;;;4.90;99.90;;;;;;4417422;28;656080;-66
2023/03/13 03:02:14;;;;;;;5.93;3.47;;;4.90;99.90;;;;;;4436389;28;655319;-65
2023/03/13 03:05:01;;;;;;;5.77;3.23;;;4.90;99.90;;;;;;4416542;28;655553;-65
2023/03/13 03:07:49;;;;;;;8.60;3.93;;;4.90;99.90;;;;;;4421460;28;655730;-65
2023/03/13 03:10:36;;;;;;;4.73;3.03;;;4.90;99.90;;;;;;4411933;28;656123;-65
2023/03/13 03:13:23;;;;;;;6.65;3.42;;;4.90;99.90;;;;;;4429154;28;656601;-66
2023/03/13 03:16:14;;;;;;;7.93;3.80;;;4.90;99.90;;;;;;4418596;28;655213;-66
2023/03/13 03:19:01;;;;;;;7.47;4.03;;;4.90;99.90;;;;;;4418166;28;655928;-65
2023/03/13 03:21:48;;;;;;;7.20;3.67;;;4.90;99.90;;;;;;4437187;28;656373;-66
2023/03/13 03:24:35;;;;;;;6.87;4.03;;;4.90;99.90;;;;;;4410688;28;655243;-65
2023/03/13 03:27:23;;;;;;;7.00;4.10;;;5.00;99.90;;;;;;4438015;28;657400;-66
2023/03/13 03:30:11;;;;;;;10.10;4.03;;;5.00;99.90;;;;;;4409898;28;655469;-66
2023/03/13 03:33:02;;;;;;;8.03;4.13;;;4.90;99.90;;;;;;4433753;28;657242;-66
2023/03/13 03:35:49;;;;;;;8.13;4.57;;;5.00;99.90;;;;;;4416449;28;655254;-65
2023/03/13 03:38:38;;;;;;;8.60;4.37;;;4.90;99.90;;;;;;4424155;28;655711;-66
2023/03/13 03:41:25;;;;;;;9.87;4.83;;;4.90;99.90;;;;;;4416617;28;655287;-66
2023/03/13 03:44:13;;;;;;;8.93;4.30;;;4.90;99.90;;;;;;4436812;28;656326;-66
2023/03/13 03:47:00;;;;;;;11.50;4.70;;;5.00;99.90;;;;;;4418391;28;655090;-66
2023/03/13 03:49:49;;;;;;;11.40;4.80;;;5.00;99.90;;;;;;4444739;28;656546;-65
2023/03/13 03:52:36;;;;;;;7.97;4.63;;;4.90;99.90;;;;;;4417737;28;656589;-66
2023/03/13 03:55:24;;;;;;;10.47;5.23;;;4.90;99.90;;;;;;4442506;28;655975;-66
2023/03/13 03:58:11;;;;;;;8.57;5.10;;;4.90;99.90;;;;;;4420346;28;656656;-65
2023/03/13 04:00:58;;;;;;;9.33;5.07;;;4.90;99.90;;;;;;4436377;28;655399;-66
2023/03/13 04:03:47;;;;;;;10.10;5.07;;;4.90;99.90;;;;;;4417851;28;655608;-66
2023/03/13 04:06:35;;;;;;;8.63;4.90;;;4.90;99.90;;;;;;4432713;28;656351;-66
2023/03/13 04:09:22;;;;;;;11.00;5.17;;;4.90;99.90;;;;;;4420028;28;656307;-66
2023/03/13 04:12:10;;;;;;;10.17;5.00;;;4.90;99.90;;;;;;4433720;28;656862;-65
2023/03/13 04:14:57;;;;;;;8.77;5.17;;;4.90;99.90;;;;;;4446532;28;657080;-65
2023/03/13 04:17:45;;;;;;;11.27;5.27;;;4.90;99.90;;;;;;4439717;28;655539;-65
2023/03/13 04:20:32;;;;;;;9.23;5.13;;;5.00;99.90;;;;;;4423442;28;657203;-66
2023/03/13 04:23:20;;;;;;;10.57;5.50;;;4.90;99.90;;;;;;4442281;28;655316;-65
2023/03/13 04:26:08;;;;;;;11.43;6.10;;;4.90;99.90;;;;;;4422422;28;657330;-66
2023/03/13 04:28:55;;;;;;;9.63;5.25;;;4.90;99.90;;;;;;4426408;28;656673;-66
2023/03/13 04:31:42;;;;;;;11.30;6.30;;;4.90;99.90;;;;;;4443409;28;657088;-65
2023/03/13 04:34:30;;;;;;;13.57;6.13;;;4.90;99.90;;;;;;4438047;28;656604;-66
2023/03/13 04:37:17;;;;;;;10.30;5.57;;;4.80;99.90;;;;;;4440505;28;657083;-65
2023/03/13 04:40:08;;;;;;;11.03;5.70;;;4.90;99.90;;;;;;4433546;28;656211;-66
2023/03/13 04:42:55;;;;;;;11.40;5.50;;;4.90;99.90;;;;;;4412966;28;656608;-66
2023/03/13 04:45:43;;;;;;;14.77;6.60;;;4.90;99.90;;;;;;4431228;28;657754;-65
2023/03/13 04:48:30;;;;;;;14.77;6.53;;;4.90;99.90;;;;;;4412595;28;656383;-66
2023/03/13 04:51:17;;;;;;;13.17;6.77;;;5.00;99.90;;;;;;4428377;28;656694;-65
2023/03/13 04:54:05;;;;;;;12.43;6.77;;;5.00;99.90;;;;;;4424012;28;656017;-66
2023/03/13 04:56:54;;;;;;;13.30;6.50;;;5.10;99.90;;;;;;4443716;28;657236;-66
2023/03/13 04:59:41;;;;;;;13.53;5.70;;;5.00;99.90;;;;;;4415890;28;657256;-65
2023/03/13 05:02:28;;;;;;;12.30;5.65;;;5.00;99.90;;;;;;4445231;28;658374;-66
2023/03/13 05:05:16;;;;;;;12.57;5.60;;;5.00;99.90;;;;;;4417312;28;656446;-66
2023/03/13 05:08:03;;;;;;;9.03;5.10;;;5.00;99.90;;;;;;4443901;28;656425;-65
2023/03/13 05:10:51;;;;;;;7.33;4.47;;;5.00;99.90;;;;;;4419552;28;655371;-65
2023/03/13 05:13:39;;;;;;;10.87;5.07;;;5.00;99.90;;;;;;4441336;28;655819;-65
2023/03/13 05:16:27;;;;;;;9.70;5.33;;;5.00;99.90;;;;;;4421458;28;657488;-66
2023/03/13 05:19:14;;;;;;;13.57;6.77;;;5.00;99.90;;;;;;4433744;28;656263;-65
2023/03/13 05:22:01;;;;;;;14.17;7.33;;;5.00;99.90;;;;;;4415699;28;657238;-66
2023/03/13 05:24:48;;;;;;;11.32;6.22;;;4.90;99.90;;;;;;4443789;28;657483;-66
2023/03/13 05:27:35;;;;;;;10.77;6.43;;;4.90;99.90;;;;;;4423008;28;657133;-66
2023/03/13 05:30:24;;;;;;;13.37;6.87;;;4.80;99.90;;;;;;4435536;28;657589;-65
2023/03/13 05:33:11;;;;;;;13.50;6.50;;;4.80;99.90;;;;;;4413412;28;656668;-66
2023/03/13 05:35:59;;;;;;;14.17;6.50;;;4.80;99.90;;;;;;4437178;28;656650;-66
2023/03/13 05:38:46;;;;;;;12.27;6.07;;;4.90;99.90;;;;;;4421065;28;656385;-66
2023/03/13 05:41:33;;;;;;;11.53;5.50;;;4.90;99.90;;;;;;4435597;28;657406;-66
2023/03/13 05:44:20;;;;;;;9.43;5.23;;;4.90;99.90;;;;;;4419149;28;656542;-65
2023/03/13 05:47:09;;;;;;;9.53;5.00;;;4.90;99.90;;;;;;4440285;28;657018;-65
2023/03/13 05:49:56;;;;;;;10.13;5.33;;;4.90;99.90;;;;;;4413353;28;656294;-66
2023/03/13 05:52:44;;;;;;;11.07;6.17;;;4.90;99.90;;;;;;4426647;28;657561;-65
2023/03/13 05:55:31;;;;;;;11.70;5.90;;;4.90;99.90;;;;;;4415230;28;657219;-66
2023/03/13 05:58:18;;;;;;;12.27;5.97;;;4.80;99.90;;;;;;4431657;28;657598;-65
2023/03/13 06:01:08;;;;;;;12.00;6.38;;;4.80;99.90;;;;;;4422266;28;656999;-65
2023/03/13 06:03:57;;;;;;;14.20;6.53;;;4.90;99.90;;;;;;4417522;28;657013;-66
2023/03/13 06:06:44;;;;;;;10.53;5.87;;;4.80;99.90;;;;;;4435486;28;656471;-66
2023/03/13 06:09:31;;;;;;;10.83;6.23;;;4.80;99.90;;;;;;4408913;28;656923;-66
2023/03/13 06:12:19;;;;;;;14.53;6.10;;;4.80;99.90;;;;;;4438395;28;656504;-65
2023/03/13 06:15:08;;;;;;;11.73;6.23;;;4.90;99.90;;;;;;4415429;28;656682;-66
2023/03/13 06:17:55;;;;;;;10.67;6.10;;;4.90;99.90;;;;;;4419018;28;656826;-65
2023/03/13 06:20:44;;;;;;;15.40;7.50;;;5.00;99.90;;;;;;4444069;28;657126;-66
2023/03/13 06:23:32;;;;;;;14.37;7.60;;;5.10;99.90;;;;;;4416816;28;657362;-65
2023/03/13 06:26:19;;;;;;;20.60;7.33;;;5.20;99.90;;;;;;4431826;28;656700;-66
2023/03/13 06:29:06;;;;;;;17.33;8.27;;;5.40;99.90;;;;;;4412422;28;657009;-66
2023/03/13 06:31:53;;;;;;;12.77;6.37;;;5.50;99.90;;;;;;4443084;28;657451;-65
2023/03/13 06:34:40;;;;;;;15.30;6.27;;;5.60;99.90;;;;;;4418370;28;656413;-66
2023/03/13 06:37:29;;;;;;;13.03;5.60;;;5.70;99.90;;;;;;4434169;28;658290;-67
2023/03/13 06:40:16;;;;;;;13.57;6.18;;;5.70;99.90;;;;;;4418845;28;656694;-71
2023/03/13 06:43:03;;;;;;;13.33;6.17;;;5.80;99.90;;;;;;4441155;28;657660;-71
2023/03/13 06:45:51;;;;;;;14.00;5.77;;;5.90;99.90;;;;;;4413157;28;657363;-71
2023/03/13 06:48:38;;;;;;;20.07;7.20;;;5.90;99.90;;;;;;4438182;28;656652;-71
2023/03/13 06:51:26;;;;;;;16.33;6.53;;;5.90;99.90;;;;;;4417533;28;656789;-72
2023/03/13 06:54:14;;;;;;;15.27;6.53;;;6.10;99.90;;;;;;4440182;28;657527;-71
2023/03/13 06:57:02;;;;;;;13.90;6.50;;;6.10;99.90;;;;;;4411720;28;656985;-71
2023/03/13 06:59:49;;;;;;;13.73;7.03;;;6.10;99.90;;;;;;4439817;28;657448;-72
2023/03/13 07:02:36;;;;;;;17.13;6.80;;;6.20;99.90;;;;;;4415867;28;656348;-71
2023/03/13 07:05:23;;;;;;;17.10;6.40;;;6.30;99.90;;;;;;4439175;28;657082;-70
2023/03/13 07:08:10;;;;;;;14.40;6.00;;;6.40;99.90;;;;;;4422833;28;656416;-70
2023/03/13 07:11:00;;;;;;;13.50;6.10;;;6.40;99.90;;;;;;4442829;28;657744;-71
2023/03/13 07:13:47;;;;;;;13.73;5.27;;;6.40;99.90;;;;;;4417336;28;656947;-71
2023/03/13 07:16:35;;;;;;;12.07;5.73;;;6.60;99.90;;;;;;4437447;28;656318;-70
2023/03/13 07:19:23;;;;;;;14.50;6.20;;;6.80;99.90;;;;;;4441274;28;657835;-70
2023/03/13 07:22:10;;;;;;;16.73;6.20;;;6.90;99.90;;;;;;4435871;28;657329;-72
2023/03/13 07:24:57;;;;;;;10.80;5.20;;;7.00;99.90;;;;;;4441783;28;657551;-71
2023/03/13 07:27:47;;;;;;;17.07;5.70;;;7.20;99.90;;;;;;4447943;28;656709;-71
2023/03/13 07:30:34;;;;;;;15.53;5.40;;;7.40;99.90;;;;;;4443146;28;656654;-72
2023/03/13 07:33:21;;;;;;;13.23;5.15;;;7.40;99.90;;;;;;4418809;28;658367;-72
2023/03/13 07:36:09;;;;;;;14.00;5.73;;;7.60;99.90;;;;;;4445127;28;656595;-71
2023/03/13 07:38:56;;;;;;;11.65;4.80;;;7.70;99.90;;;;;;4416600;28;656449;-72
2023/03/13 07:41:43;;;;;;;10.73;4.40;;;7.80;99.90;;;;;;4438108;28;657275;-72
2023/03/13 07:44:32;;;;;;;12.50;4.27;;;8.00;99.90;;;;;;4424311;28;657484;-71
2023/03/13 07:47:19;;;;;;;17.60;5.13;;;8.10;99.90;;;;;;4438867;28;657261;-72
2023/03/13 07:50:08;;;;;;;13.63;4.97;;;8.30;99.90;;;;;;4421570;28;656439;-69
2023/03/13 07:52:55;;;;;;;11.63;4.82;;;8.40;99.90;;;;;;4419979;28;656726;-71
2023/03/13 07:55:42;;;;;;;11.13;4.70;;;8.50;99.90;;;;;;4441135;28;656773;-71
2023/03/13 07:58:31;;;;;;;13.30;4.90;;;8.60;99.90;;;;;;4435086;28;656678;-71
2023/03/13 08:01:20;;;;;;;7.80;4.18;;;8.70;99.90;;;;;;4441002;28;657507;-70
2023/03/13 08:04:09;;;;;;;9.63;4.50;;;8.80;99.90;;;;;;4412491;28;656548;-70
2023/03/13 08:06:56;;;;;;;13.00;4.60;;;9.00;99.90;;;;;;4420919;28;655462;-69
2023/03/13 08:09:44;;;;;;;14.23;4.80;;;9.10;99.90;;;;;;4437950;28;657431;-72
2023/03/13 08:12:31;;;;;;;19.57;4.67;;;9.20;99.90;;;;;;4418053;28;656514;-71
2023/03/13 08:15:24;;;;;;;12.10;4.90;;;9.20;99.90;;;;;;4438896;28;658045;-71
2023/03/13 08:18:12;;;;;;;13.93;4.70;;;9.30;99.90;;;;;;4400267;28;657391;-69
2023/03/13 08:21:02;;;;;;;11.47;4.63;;;9.30;99.90;;;;;;4428931;28;657493;-70
2023/03/13 08:23:53;;;;;;;13.93;4.70;;;9.50;99.90;;;;;;4431909;28;658329;-69
2023/03/13 08:26:41;;;;;;;13.37;4.53;;;9.70;99.90;;;;;;4409911;28;657118;-69
2023/03/13 08:29:29;;;;;;;12.43;3.60;;;9.80;99.90;;;;;;4439476;28;657567;-69
2023/03/13 08:32:17;;;;;;;15.67;5.20;;;9.80;99.90;;;;;;4417159;28;656270;-70
2023/03/13 08:35:06;;;;;;;11.10;3.50;;;9.60;99.90;;;;;;4426242;28;656239;-71
2023/03/13 08:37:53;;;;;;;11.13;3.87;;;9.80;99.90;;;;;;4420016;28;657455;-71
2023/03/13 08:40:41;;;;;;;10.23;4.03;;;9.90;99.90;;;;;;4423761;28;656692;-71
2023/03/13 08:43:28;;;;;;;11.40;4.10;;;9.80;99.90;;;;;;4445252;28;657443;-71
2023/03/13 08:46:15;;;;;;;12.38;4.05;;;9.90;99.90;;;;;;4425713;28;656425;-68
2023/03/13 08:49:03;;;;;;;12.57;3.87;;;9.90;99.90;;;;;;4441404;28;657324;-69
2023/03/13 08:51:52;;;;;;;14.87;3.90;;;10.20;99.90;;;;;;4430031;28;657138;-69
2023/03/13 08:54:39;;;;;;;12.03;3.73;;;10.30;99.90;;;;;;4439697;28;657657;-68
2023/03/13 08:57:26;;;;;;;12.03;3.70;;;10.60;99.90;;;;;;4424282;28;657478;-71
2023/03/13 09:00:14;;;;;;;11.13;3.33;;;10.90;99.90;;;;;;4439442;28;658989;-70
2023/03/13 09:03:02;;;;;;;11.27;3.77;;;11.00;99.90;;;;;;4422607;28;657935;-69
2023/03/13 09:05:49;;;;;;;11.73;3.63;;;11.40;99.90;;;;;;4439174;28;657689;-70
2023/03/13 09:08:38;;;;;;;12.93;4.07;;;11.50;99.90;;;;;;4417323;28;657961;-70
2023/03/13 09:11:25;;;;;;;11.10;3.27;;;11.70;99.90;;;;;;4414113;28;657519;-69
2023/03/13 09:14:13;;;;;;;10.73;3.20;;;11.70;99.90;;;;;;4437843;28;659178;-71
2023/03/13 09:17:00;;;;;;;14.20;3.90;;;11.90;99.90;;;;;;4420351;28;657862;-70
2023/03/13 09:19:47;;;;;;;13.43;3.57;;;11.90;99.90;;;;;;4438615;28;658459;-71
2023/03/13 09:22:35;;;;;;;13.37;4.03;;;11.70;99.90;;;;;;4434137;28;656951;-69
2023/03/13 09:25:24;;;;;;;8.23;2.90;;;11.70;99.90;;;;;;4441373;28;658337;-71
2023/03/13 09:28:11;;;;;;;14.20;3.87;;;11.40;99.90;;;;;;4420724;28;656712;-69
2023/03/13 09:31:06;;;;;;;20.17;4.30;;;10.90;99.90;;;;;;4435977;28;658632;-70
2023/03/13 09:33:54;;;;;;;10.63;3.27;;;11.10;99.90;;;;;;4412900;28;658355;-72
2023/03/13 09:36:41;;;;;;;9.93;3.20;;;11.20;99.90;;;;;;4417506;28;658286;-72
2023/03/13 09:39:28;;;;;;;17.77;4.27;;;10.90;99.90;;;;;;4443938;28;658050;-71
2023/03/13 09:42:17;;;;;;;12.13;3.80;;;10.90;99.90;;;;;;4420639;28;658092;-68
2023/03/13 09:45:07;;;;;;;12.77;3.87;;;10.90;99.90;;;;;;4434167;28;659189;-70
2023/03/13 09:47:55;;;;;;;9.83;3.43;;;11.00;99.90;;;;;;4422140;28;657590;-68
2023/03/13 09:50:44;;;;;;;11.52;3.08;;;11.50;99.90;;;;;;4381357;28;657262;-72
2023/03/13 09:53:34;;;;;;;12.00;3.17;;;11.70;99.90;;;;;;4388854;28;658552;-68
2023/03/13 09:56:23;;;;;;;9.70;2.97;;;11.40;99.90;;;;;;4401556;28;658158;-71
2023/03/13 09:59:16;;;;;;;6.30;2.67;;;11.30;99.90;;;;;;4387468;28;657012;-69
2023/03/13 10:02:05;;;;;;;11.27;2.97;;;11.40;99.90;;;;;;4383026;28;657133;-70
2023/03/13 10:04:53;;;;;;;9.03;2.73;;;11.50;99.90;;;;;;4383357;28;658873;-70
2023/03/13 10:07:40;;;;;;;8.47;2.63;;;11.90;99.90;;;;;;4400356;28;656740;-69
2023/03/13 10:10:34;;;;;;;7.30;2.40;;;11.70;99.90;;;;;;4418645;28;657497;-70
2023/03/13 10:13:24;;;;;;;5.87;2.63;;;11.50;99.90;;;;;;4401473;28;656218;-69
2023/03/13 10:16:15;;;;;;;8.00;2.70;;;11.40;99.90;;;;;;4404801;28;656773;-68
2023/03/13 10:19:08;;;;;;;9.70;2.33;;;11.60;99.90;;;;;;4398648;28;656716;-71
2023/03/13 10:21:56;;;;;;;7.33;2.90;;;12.10;99.90;;;;;;4379371;28;659546;-69
2023/03/13 10:24:47;;;;;;;8.37;2.57;;;12.40;99.90;;;;;;4418650;28;657885;-71
2023/03/13 10:27:43;;;;;;;11.43;2.50;;;12.70;99.90;;;;;;4391146;28;656686;-67
2023/03/13 10:30:31;;;;;;;8.03;2.67;;;12.50;99.90;;;;;;4375619;28;658198;-70
2023/03/13 10:33:22;;;;;;;7.03;2.47;;;12.70;99.90;;;;;;4410011;28;656690;-70
2023/03/13 10:36:10;;;;;;;10.00;2.80;;;12.60;99.90;;;;;;4387083;28;657231;-68
2023/03/13 10:38:57;;;;;;;7.30;2.20;;;12.60;99.90;;;;;;4375192;28;659830;-68
2023/03/13 10:41:45;;;;;;;4.93;2.03;;;13.30;99.90;;;;;;4408648;28;656679;-69
2023/03/13 10:44:32;;;;;;;6.67;1.93;;;13.50;98.00;;;;;;4389843;28;657259;-70
2023/03/13 10:47:20;;;;;;;8.10;2.00;;;12.70;97.40;;;;;;4439172;28;656185;-70
2023/03/13 10:50:17;;;;;;;6.90;2.00;;;12.30;99.40;;;;;;4447012;28;657062;-69
2023/03/13 10:53:23;;;;;;;10.37;2.50;;;12.60;98.20;;;;;;4417174;28;657427;-69
2023/03/13 10:56:11;;;;;;;5.13;1.80;;;12.40;98.40;;;;;;4394096;28;658106;-70
2023/03/13 10:58:59;;;;;;;2.70;1.70;;;12.70;95.80;;;;;;4438240;28;657149;-69
2023/03/13 11:01:46;;;;;;;5.07;2.33;;;12.70;95.80;;;;;;4418780;28;656724;-70
2023/03/13 11:04:34;;;;;;;6.93;2.17;;;12.60;94.80;;;;;;4438598;28;656621;-70
2023/03/13 11:07:27;;;;;;;6.83;2.07;;;12.60;94.90;;;;;;4424030;28;657186;-70
2023/03/13 11:10:18;;;;;;;4.23;1.67;;;12.90;94.50;;;;;;4423027;28;656958;-69
2023/03/13 11:13:05;;;;;;;7.70;2.03;;;12.80;94.90;;;;;;4396749;28;656770;-69
2023/03/13 11:15:55;;;;;;;9.47;2.10;;;12.70;93.30;;;;;;4439625;28;656824;-70
2023/03/13 11:18:48;;;;;;;4.50;1.70;;;13.00;94.40;;;;;;4418166;28;656947;-70
2023/03/13 11:21:39;;;;;;;5.90;2.23;;;13.30;90.90;;;;;;4401578;28;656768;-68
2023/03/13 11:24:31;;;;;;;6.10;1.97;;;13.30;92.10;;;;;;4421658;28;656147;-70
2023/03/13 11:27:23;;;;;;;10.87;2.30;;;13.20;87.90;;;;;;4411626;28;658898;-68
2023/03/13 11:30:21;;;;;;;6.87;1.93;;;13.10;90.10;;;;;;4397782;28;658259;-69
2023/03/13 11:33:12;;;;;;;5.27;1.90;;;12.80;89.40;;;;;;4419603;28;657963;-70
2023/03/13 11:36:01;;;;;;;11.00;2.37;;;12.40;90.80;;;;;;4413109;28;656040;-69
2023/03/13 11:38:50;;;;;;;7.77;2.40;;;12.20;92.00;;;;;;4441037;28;658178;-70
2023/03/13 11:41:48;;;;;;;8.57;2.65;;;12.30;91.70;;;;;;4423739;28;656794;-69
2023/03/13 11:44:43;;;;;;;9.43;2.50;;;12.30;91.10;;;;;;4419633;28;656794;-70
2023/03/13 11:47:39;;;;;;;6.90;2.50;;;12.30;90.80;;;;;;4393701;28;656745;-70
2023/03/13 11:50:32;;;;;;;6.00;2.40;;;12.30;90.40;;;;;;4419721;28;656358;-71
2023/03/13 11:53:31;;;;;;;4.73;2.03;;;12.10;90.70;;;;;;4416851;28;656573;-69
2023/03/13 11:56:20;;;;;;;7.83;2.23;;;12.20;89.40;;;;;;4414172;28;657061;-68
2023/03/13 11:59:18;;;;;;;6.37;2.20;;;12.30;90.40;;;;;;4412642;28;656900;-70
2023/03/13 12:02:07;;;;;;;5.13;2.00;;;12.30;84.50;;;;;;4410673;28;657061;-69
2023/03/13 12:04:55;;;;;;;5.03;2.07;;;12.20;84.70;;;;;;4439705;28;656499;-71
2023/03/13 12:07:45;;;;;;;6.47;2.27;;;12.40;83.50;;;;;;4419588;28;656855;-69
2023/03/13 12:10:34;;;;;;;7.53;2.50;;;12.40;82.00;;;;;;4416137;28;657794;-69
2023/03/13 12:13:23;;;;;;;6.37;2.10;;;12.40;81.10;;;;;;4422977;28;657035;-69
2023/03/13 12:16:14;;;;;;;4.37;1.87;;;12.50;79.00;;;;;;4416414;28;657757;-68
2023/03/13 12:19:01;;;;;;;5.13;2.17;;;12.40;81.50;;;;;;4419173;28;656974;-69
2023/03/13 12:21:51;;;;;;;4.53;2.00;;;12.50;81.40;;;;;;4437238;28;657574;-70
2023/03/13 12:24:40;;;;;;;4.33;2.00;;;12.70;78.00;;;;;;4414473;28;657140;-67
2023/03/13 12:27:31;;;;;;;5.03;1.97;;;12.70;79.10;;;;;;4419052;28;657191;-68
2023/03/13 12:30:22;;;;;;;5.47;2.60;;;12.80;78.60;;;;;;4421456;28;657754;-69
2023/03/13 12:33:16;;;;;;;5.43;2.50;;;12.90;78.00;;;;;;4413397;28;657353;-69
2023/03/13 12:36:07;;;;;;;5.40;1.97;;;13.10;80.20;;;;;;4417322;28;656800;-69
2023/03/13 12:38:57;;;;;;;5.20;1.97;;;13.10;74.60;;;;;;4418004;28;657366;-70
2023/03/13 12:41:46;;;;;;;4.83;1.90;;;13.00;72.10;;;;;;4422148;28;656406;-69
2023/03/13 12:44:33;;;;;;;4.17;1.50;;;12.90;75.20;;;;;;4416801;28;658385;-69
2023/03/13 12:47:23;;;;;;;2.17;1.67;;;12.90;71.10;;;;;;4421339;28;656802;-69
2023/03/13 12:50:23;;;;;;;4.67;1.60;;;12.80;71.90;;;;;;4414493;28;657686;-70
2023/03/13 12:53:20;;;;;;;3.47;1.53;;;12.80;68.70;;;;;;4417495;28;656701;-67
2023/03/13 12:56:27;;;;;;;3.47;2.00;;;12.80;69.40;;;;;;4417191;28;657379;-68
2023/03/13 12:59:15;;;;;;;5.17;1.90;;;12.70;69.70;;;;;;4413705;28;657360;-69
2023/03/13 13:02:03;;;;;;;5.23;2.37;;;12.70;72.80;;;;;;4417590;28;657020;-71
2023/03/13 13:04:52;;;;;;;2.83;1.50;;;12.80;71.60;;;;;;4429946;28;656684;-69
2023/03/13 13:07:40;;;;;;;4.03;2.00;;;12.80;69.80;;;;;;4429357;28;657091;-68
2023/03/13 13:10:28;;;;;;;6.10;2.30;;;12.70;71.70;;;;;;4414631;28;658212;-69
2023/03/13 13:13:28;;;;;;;3.43;1.90;;;12.60;73.20;;;;;;4418693;28;656780;-69
2023/03/13 13:16:17;;;;;;;4.60;2.13;;;12.40;76.80;;;;;;4395101;28;656621;-68
2023/03/13 13:19:45;;;;;;;10.47;4.00;;;12.30;76.90;;;;;;4434664;28;656390;-69
2023/03/13 13:22:51;;;;;;;7.80;3.50;;;12.20;79.70;;;;;;4394024;28;658547;-70
2023/03/13 13:25:39;;;;;;;5.87;1.90;;;12.10;85.50;;;;;;4406768;28;656540;-71
2023/03/13 13:28:33;;;;;;;6.37;1.83;;;12.10;83.10;;;;;;4418342;28;656762;-68
2023/03/13 13:31:45;;;;;;;4.80;1.60;;;11.80;86.10;;;;;;4397555;28;656930;-69
2023/03/13 13:34:54;;;;;;;9.43;3.40;;;11.80;90.60;;;;;;4392003;28;656734;-69
2023/03/13 13:37:41;;;;;;;3.70;1.80;;;11.50;96.00;;;;;;4397968;28;657506;-69
2023/03/13 13:40:30;;;;;;;4.30;1.83;;;11.50;95.50;;;;;;4442492;28;656974;-70
2023/03/13 13:43:21;;;;;;;4.03;2.10;;;11.40;99.90;;;;;;4412557;28;656836;-70
2023/03/13 13:46:19;;;;;;;5.90;2.10;;;11.30;99.90;;;;;;4417221;28;657231;-70
2023/03/13 13:49:14;;;;;;;4.50;2.10;;;11.20;99.90;;;;;;4401215;28;658294;-70
2023/03/13 13:52:34;;;;;;;5.03;2.23;;;11.20;99.90;;;;;;4422982;28;656970;-71
2023/03/13 13:55:43;;;;;;;3.85;1.42;;;11.10;99.90;;;;;;4394316;28;657290;-69
2023/03/13 13:58:30;;;;;;;2.83;1.80;;;11.20;99.90;;;;;;4430747;28;656751;-69
2023/03/13 14:01:17;;;;;;;5.50;2.33;;;11.20;99.90;;;;;;4434927;28;657336;-70
2023/03/13 14:04:12;;;;;;;9.03;4.13;;;11.20;99.90;;;;;;4434599;28;656362;-68
2023/03/13 14:07:01;;;;;;;11.83;4.80;;;11.10;99.90;;;;;;4418665;28;656283;-69
2023/03/13 14:09:52;;;;;;;6.50;2.27;;;11.10;99.90;;;;;;4419432;28;658223;-72
2023/03/13 14:12:45;;;;;;;6.80;2.83;;;11.10;99.90;;;;;;4434572;28;656747;-67
2023/03/13 14:15:33;;;;;;;7.67;3.00;;;11.00;99.90;;;;;;4421472;28;656558;-72
2023/03/13 14:18:22;;;;;;;7.60;2.77;;;11.00;99.90;;;;;;4417357;28;656969;-70
2023/03/13 14:21:12;;;;;;;5.77;2.60;;;10.90;99.90;;;;;;4437032;28;656620;-71
2023/03/13 14:24:00;;;;;;;6.13;2.83;;;10.90;99.90;;;;;;4431265;28;656740;-69
2023/03/13 14:26:47;;;;;;;5.17;2.10;;;10.80;99.90;;;;;;4442487;28;657181;-70
2023/03/13 14:29:37;;;;;;;4.10;2.10;;;10.80;99.90;;;;;;4431169;28;656858;-74